createdAt,value
2016-04-29T00:00:30.052Z,99.99
2016-04-29T00:01:30.180Z,99.99
2016-04-29T00:03:45.403Z,99.99
2016-04-29T00:04:45.375Z,99.99
2016-04-29T00:05:45.471Z,99.99
2016-04-29T00:06:45.411Z,99.99
2016-04-29T00:07:45.445Z,99.99
2016-04-29T00:08:45.448Z,99.99
2016-04-29T00:09:58.201Z,99.99
2016-04-29T00:10:51.750Z,99.99
2016-04-29T00:11:45.488Z,99.99
2016-04-29T00:12:45.504Z,99.99
2016-04-29T00:13:58.272Z,99.99
2016-04-29T00:14:45.831Z,99.99
2016-04-29T00:15:45.623Z,99.99
2016-04-29T00:16:47.088Z,99.99
2016-04-29T00:17:58.474Z,99.99
2016-04-29T00:18:45.633Z,99.99
2016-04-29T00:19:45.806Z,99.99
2016-04-29T00:21:05.103Z,99.99
2016-04-29T00:21:52.137Z,99.99
2016-04-29T00:23:17.231Z,99.99
2016-04-29T00:24:01.136Z,99.99
2016-04-29T00:25:01.159Z,99.99
2016-04-29T00:26:01.166Z,99.99
2016-04-29T00:27:01.799Z,99.99
2016-04-29T00:28:01.197Z,99.99
2016-04-29T00:29:01.204Z,99.99
2016-04-29T00:30:01.084Z,99.99
2016-04-29T00:31:07.510Z,99.99
2016-04-29T00:32:20.452Z,99.99
2016-04-29T00:33:01.394Z,99.99
2016-04-29T00:34:01.274Z,99.99
2016-04-29T00:35:01.152Z,99.99
2016-04-29T00:36:01.312Z,99.99
2016-04-29T00:37:01.315Z,99.99
2016-04-29T00:38:01.943Z,99.99
2016-04-29T00:39:01.353Z,99.99
2016-04-29T00:40:02.795Z,99.99
2016-04-29T00:41:14.109Z,99.99
2016-04-29T00:42:01.393Z,99.99
2016-04-29T00:43:01.396Z,99.99
2016-04-29T00:44:01.603Z,99.99
2016-04-29T18:19:16.156Z,84.95
2016-04-29T18:20:16.331Z,84.85
2016-04-29T18:21:16.350Z,85.61
2016-04-29T18:22:16.338Z,85.71
2016-04-29T18:23:16.497Z,86.66
2016-04-29T18:24:16.374Z,85.9
2016-04-29T18:25:16.565Z,86.28
2016-04-29T22:36:00.528Z,91.23
2016-04-29T22:36:34.936Z,91.52
2016-04-29T22:37:34.876Z,91.13
2016-04-29T22:38:34.957Z,91.23
2016-04-29T22:39:34.914Z,91.42
2016-04-29T22:40:34.917Z,91.33
2016-04-29T22:41:47.701Z,91.52
2016-04-29T22:42:42.640Z,91.33
2016-04-29T22:43:34.955Z,92.37
2016-04-29T22:44:54.270Z,92.46
2016-04-29T22:45:35.007Z,92.56
2016-04-29T22:47:06.338Z,91.04
2016-04-29T22:47:44.686Z,91.13
2016-04-29T22:48:44.703Z,91.61
2016-04-29T22:49:59.799Z,91.71
2016-04-29T22:50:59.818Z,91.61
2016-04-29T22:52:02.977Z,91.61
2016-04-29T22:53:12.716Z,91.33
2016-04-29T22:55:27.957Z,90.75
2016-04-29T22:56:28.068Z,91.04
2016-04-29T22:57:27.884Z,91.52
2016-04-29T22:58:53.621Z,90.75
2016-04-29T22:59:31.843Z,90.94
2016-04-29T23:00:31.846Z,91.04
2016-04-29T23:01:31.707Z,90.37
2016-04-29T23:02:31.865Z,90.56
2016-04-29T23:03:31.899Z,90.66
2016-04-29T23:04:44.652Z,90.66
2016-04-29T23:05:51.140Z,90.94
2016-04-29T23:06:31.955Z,90.85
2016-04-29T23:07:57.629Z,91.33
2016-04-29T23:09:00.787Z,90.28
2016-04-29T23:10:00.807Z,90.75
2016-04-29T23:11:13.544Z,90.47
2016-04-29T23:12:00.828Z,90.94
2016-04-29T23:13:20.052Z,91.42
2016-04-29T23:14:00.912Z,90.94
2016-04-29T23:15:32.167Z,91.89
2016-04-29T23:16:41.795Z,91.61
2016-04-29T23:17:16.141Z,92.46
2016-04-29T23:18:48.519Z,92.37
2016-04-29T23:19:26.927Z,91.52
2016-04-29T23:20:27.195Z,91.8
2016-04-29T23:21:42.355Z,92.08
2016-04-29T23:22:42.294Z,91.33
2016-04-29T23:23:42.767Z,90.94
2016-04-29T23:24:48.581Z,91.23
2016-04-29T23:26:01.537Z,91.13
2016-04-29T23:26:42.352Z,90.94
2016-04-29T23:28:57.671Z,91.13
2016-04-29T23:29:57.767Z,90.56
2016-04-29T23:31:10.457Z,90.56
2016-04-29T23:31:57.600Z,90.66
2016-04-29T23:33:16.980Z,90.28
2016-04-29T23:34:00.777Z,90.37
2016-04-29T23:35:26.486Z,91.23
2016-04-29T23:36:23.082Z,90.42
2016-04-29T23:37:36.038Z,91.18
2016-04-29T23:38:32.587Z,91.13
2016-04-29T23:39:19.871Z,90.75
2016-04-29T23:40:20.093Z,90.89
2016-04-29T23:41:39.111Z,90.28
2016-04-29T23:42:19.911Z,90.04
2016-04-29T23:43:45.445Z,89.8
2016-04-29T23:44:32.698Z,90.8
2016-04-29T23:45:51.247Z,90.33
2016-04-29T23:46:39.187Z,90
2016-04-29T23:48:26.131Z,90.56
2016-04-29T23:49:20.040Z,90.47
2016-04-29T23:50:45.730Z,90.09
2016-04-29T23:51:27.061Z,90.42
2016-04-29T23:52:55.344Z,90.66
2016-04-29T23:53:33.675Z,90.37
2016-04-29T23:55:04.959Z,90.42
2016-04-29T23:55:43.883Z,90.85
2016-04-29T23:56:43.902Z,89.94
2016-04-29T23:57:56.654Z,90.75
2016-04-29T23:58:43.938Z,89.94
